Nearby METAR Reports

 

KTTN - Trenton, New Jersey, USA
Distance from station: WNW 11mi, 17km
Updated: Sat, 04-Jul-2020 9:53pm EDT
Clear
Clear
 Wind from SSE
Wind: SSE 7 mph , 11 km/h
Temperature: 77°F , 25°C
Dew Point: 66°F , 19°C
Humidity: 69%
Barometer: 29.93 inHg , 1013.5 hPa
Clouds: Clear
Visibility: 7 miles , 11 km
2020/07/05 01:53 KTTN 050153Z 16006KT 7SM CLR 25/19 A2993 RMK AO2 SLP126 T02500189
KWRI - Wrightst/Mcguire, New Jersey, USA
Distance from station: SSE 14mi, 22km
Updated: Sat, 04-Jul-2020 9:56pm EDT
Clear
Clear
 Wind from SSE
Wind: SSE 7 mph , 11 km/h
Temperature: 73°F , 23°C
Dew Point: 70°F , 21°C
Humidity: 89%
Barometer: 29.94 inHg , 1013.9 hPa
Clouds: Clear
Visibility: 10 miles , 16 km
2020/07/05 01:56 KWRI 050156Z AUTO 15006KT 10SM CLR 23/21 A2994 RMK AO2 SLP137 T02260205 TSNO $
 
KNEL - Lakehurst Nas, New Jersey, USA
Distance from station: SE 21mi, 34km
Updated: Sat, 04-Jul-2020 10:00pm EDT
Clear
Clear
 
Barometer: 29.94 inHg , 1013.9 hPa
Clouds: Clear
Visibility: 10 miles , 16 km
2020/07/05 02:00 KNEL 050200Z AUTO 10SM CLR A2994 RMK AO2 SLPNO $
KPNE - Philadelphia/Ne, Pennsylvania, USA
Distance from station: WSW 22mi, 35km
Updated: Sat, 04-Jul-2020 9:54pm EDT
Clear
Clear
 Wind from SSE
Wind: SSE 5 mph , 7 km/h
Temperature: 82°F , 28°C
Heat Index: 84°F , 29°C
Dew Point: 64°F , 18°C
Humidity: 55%
Barometer: 29.94 inHg , 1013.9 hPa
Clouds: Clear
Visibility: 7 miles , 11 km
2020/07/05 01:54 KPNE 050154Z 15004KT 7SM CLR 28/18 A2994 RMK AO2 SLP137 T02780183
 
KVAY - Mount Holly, New Jersey, USA
Distance from station: SSW 22mi, 35km
Updated: Sat, 04-Jul-2020 9:54pm EDT
Clear
Clear
 Wind from calm
Wind: Calm
Temperature: 75°F , 24°C
Dew Point: 70°F , 21°C
Humidity: 83%
Barometer: 29.93 inHg , 1013.5 hPa
Clouds: Clear
Visibility: 10 miles , 16 km
2020/07/05 01:54 KVAY 050154Z AUTO 00000KT 10SM CLR 24/21 A2993 RMK AO2 SLP135 T02440211
KMJX - Toms River, New Jersey, USA
Distance from station: SE 26mi, 42km
Updated: Sat, 04-Jul-2020 9:56pm EDT
Clear
Clear
 Wind from calm
Wind: Calm
Temperature: 72°F , 22°C
Dew Point: 66°F , 19°C
Humidity: 83%
Barometer: 29.95 inHg , 1014.2 hPa
Clouds: Clear
Visibility: 10 miles , 16 km
2020/07/05 01:56 KMJX 050156Z AUTO 00000KT 10SM CLR 22/19 A2995 RMK AO2 SLP147 T02170194
 
KDYL - Doylestown, Pennsylvania, USA
Distance from station: WNW 27mi, 43km
Updated: Sat, 04-Jul-2020 9:54pm EDT
Clear
Clear
 Wind from calm
Wind: Calm
Temperature: 75°F , 24°C
Dew Point: 66°F , 19°C
Humidity: 74%
Barometer: 29.93 inHg , 1013.5 hPa
Clouds: Clear
Visibility: 10 miles , 16 km
2020/07/05 01:54 KDYL 050154Z AUTO 00000KT 10SM CLR 24/19 A2993 RMK AO2 SLP129 T02440189
KBLM - Belmar/Farmdale, New Jersey, USA
Distance from station: E 28mi, 45km
Updated: Sat, 04-Jul-2020 9:56pm EDT
Clear
Clear
 Wind from SE
Wind: SE 5 mph , 7 km/h
Temperature: 72°F , 22°C
Barometer: 29.96 inHg , 1014.6 hPa
Clouds: Clear
Visibility: 10 miles , 16 km
2020/07/05 01:56 KBLM 050156Z AUTO 14004KT 10SM CLR 22/ A2996 RMK AO2 SLP144 T0217
 
KSMQ - Somerville, New Jersey, USA
Distance from station: N 28mi, 45km
Updated: Sat, 04-Jul-2020 9:53pm EDT
Clear
Clear
 Wind from calm
Wind: Calm
Temperature: 72°F , 22°C
Dew Point: 66°F , 19°C
Humidity: 83%
Barometer: 29.91 inHg , 1012.9 hPa
Clouds: Clear
Visibility: 10 miles , 16 km
2020/07/05 01:53 KSMQ 050153Z AUTO 00000KT 10SM CLR 22/19 A2991 RMK AO2 SLP126 T02170194
KLOM - Philly Wings F, Pennsylvania, USA
Distance from station: W 34mi, 54km
Updated: Sat, 04-Jul-2020 10:35pm EDT
Clear
Clear
 Wind from SSW
Wind: SSW 3 mph , 6 km/h
Temperature: 77°F , 25°C
Dew Point: 66°F , 19°C
Humidity: 69%
Barometer: 29.94 inHg , 1013.9 hPa
Clouds: Clear
Visibility: 10 miles , 16 km
2020/07/05 02:35 KLOM 050235Z AUTO 20003KT 10SM CLR 25/19 A2994 RMK AO2 T02490192
 
KLDJ - Linden, New Jersey, USA
Distance from station: NE 35mi, 56km
Updated: Sat, 04-Jul-2020 10:35pm EDT
Haze, Partly cloudy
Haze, Partly cloudy
 Wind from calm
Wind: Calm
Barometer: 29.93 inHg , 1013.5 hPa
Summary: Haze
Clouds: Partly cloudy
Visibility: 5 miles , 8 km
Cloud details: Partly cloudy 8500 ft
2020/07/05 02:35 KLDJ 050235Z AUTO 00000KT 5SM HZ SCT085 A2993 RMK AO2
KCKZ - Perkasie, Pennsylvania, USA
Distance from station: WNW 36mi, 58km
Updated: Sat, 04-Jul-2020 10:35pm EDT
Mostly cloudy
Mostly cloudy
 Wind from calm
Wind: Calm
Temperature: 68°F , 20°C
Dew Point: 68°F , 20°C
Humidity: 100%
Barometer: 29.96 inHg , 1014.6 hPa
Clouds: Mostly cloudy
Visibility: 10 miles , 16 km
Cloud details: Mostly cloudy 7500 ft
2020/07/05 02:35 KCKZ 050235Z AUTO 00000KT 10SM BKN075 20/20 A2996 RMK AO2
 
KPHL - Philadelphia, Pennsylvania, USA
Distance from station: SW 40mi, 64km
Updated: Sat, 04-Jul-2020 9:54pm EDT
Partly cloudy
Partly cloudy
 Wind from S
Wind: S 7 mph , 11 km/h
Temperature: 79°F , 26°C
Dew Point: 70°F , 21°C
Humidity: 74%
Barometer: 29.93 inHg , 1013.5 hPa
Clouds: Partly cloudy
Visibility: 10 miles , 16 km
Cloud details: Few Clouds 12000 ft
Partly cloudy 25000 ft
2020/07/05 01:54 KPHL 050154Z 19006KT 10SM FEW120 SCT250 26/21 A2993 RMK AO2 SLP135 T02610211
KEWR - Newark, New Jersey, USA
Distance from station: NE 41mi, 66km
Updated: Sat, 04-Jul-2020 9:51pm EDT
Partly cloudy
Partly cloudy
 Wind from SE
Wind: SE 5 mph , 7 km/h
Temperature: 75°F , 24°C
Dew Point: 68°F , 20°C
Humidity: 78%
Barometer: 29.92 inHg , 1013.2 hPa
Clouds: Partly cloudy
Visibility: 7 miles , 11 km
Cloud details: Few Clouds 7000 ft
Partly cloudy 8500 ft
2020/07/05 01:51 KEWR 050151Z 13004KT 7SM FEW070 SCT085 24/20 A2992 RMK AO2 SLP133 T02390200
 
KMMU - Morristown Muni, New Jersey, USA
Distance from station: NNE 41mi, 66km
Updated: Sat, 04-Jul-2020 10:35pm EDT
Partly cloudy
Partly cloudy
 Wind from calm
Wind: Calm
Temperature: 73°F , 23°C
Dew Point: 66°F , 19°C
Humidity: 78%
Barometer: 29.93 inHg , 1013.5 hPa
Clouds: Partly cloudy
Visibility: 10 miles , 16 km
Cloud details: Partly cloudy 7500 ft
Partly cloudy 10000 ft
2020/07/05 02:35 KMMU 050235Z AUTO 00000KT 10SM SCT075 SCT100 23/19 A2993 RMK AO2
KUKT - Quakertown Arp, Pennsylvania, USA
Distance from station: WNW 42mi, 68km
Updated: Sat, 04-Jul-2020 10:40pm EDT
Mostly cloudy
Mostly cloudy
 Wind from calm
Wind: Calm
Temperature: 73°F , 23°C
Dew Point: 68°F , 20°C
Humidity: 83%
Barometer: 29.95 inHg , 1014.2 hPa
Clouds: Mostly cloudy
Visibility: 9 miles , 14 km
Cloud details: Mostly cloudy 7000 ft
2020/07/05 02:40 KUKT 050240Z AUTO 00000KT 9SM BKN070 23/20 A2995 RMK A01
 
KJRB - Manhattan/Dwntwn, New York, USA
Distance from station: NE 47mi, 75km
Updated: Sat, 04-Jul-2020 9:56pm EDT
Clear
Clear
 Wind from S
Wind: S 5 mph , 7 km/h
Temperature: 73°F , 23°C
Dew Point: 66°F , 19°C
Humidity: 78%
Barometer: 29.94 inHg , 1013.9 hPa
Clouds: Clear
Visibility: 10 miles , 16 km
2020/07/05 01:56 KJRB 050156Z AUTO 17004KT 10SM CLR 23/19 A2994 RMK AO2 SLP139 T02330194
KPTW - Pottstown, Pennsylvania, USA
Distance from station: W 48mi, 77km
Updated: Sat, 04-Jul-2020 9:54pm EDT
Clear
Clear
 Wind from calm
Wind: Calm
Temperature: 75°F , 24°C
Dew Point: 64°F , 18°C
Humidity: 69%
Barometer: 29.94 inHg , 1013.9 hPa
Clouds: Clear
Visibility: 7 miles , 11 km
2020/07/05 01:54 KPTW 050154Z AUTO 00000KT 7SM CLR 24/18 A2994 RMK AO2 SLP135 T02440178
 
KCDW - Caldwell, New Jersey, USA
Distance from station: NNE 50mi, 80km
Updated: Sat, 04-Jul-2020 9:53pm EDT
Clear
Clear
 Wind from varies
Wind: varies 5 mph , 7 km/h
Temperature: 79°F , 26°C
Dew Point: 64°F , 18°C
Humidity: 61%
Barometer: 29.92 inHg , 1013.2 hPa
Clouds: Clear
Visibility: 10 miles , 16 km
2020/07/05 01:53 KCDW 050153Z AUTO VRB04KT 10SM CLR 26/18 A2992 RMK AO2 SLP137 T02610178